createdAt,value
2019-02-02T00:04:11.485Z,46.03
2019-02-02T00:06:59.247Z,43.77
2019-02-02T00:09:47.358Z,45.33
2019-02-02T00:12:35.096Z,43.20
2019-02-02T00:15:22.852Z,42.63
2019-02-02T00:18:10.623Z,44.47
2019-02-02T00:20:51.500Z,43.73
2019-02-02T00:23:32.345Z,43.33
2019-02-02T00:26:12.674Z,43.53
2019-02-02T00:28:53.306Z,43.30
2019-02-02T00:31:33.980Z,43.97
2019-02-02T00:34:14.725Z,44.83
2019-02-02T00:36:58.815Z,43.90
2019-02-02T00:39:38.053Z,43.57
2019-02-02T00:42:18.448Z,43.43
2019-02-02T00:44:46.877Z,45.37
2019-02-02T00:47:34.628Z,43.53
2019-02-02T00:50:22.396Z,45.07
2019-02-02T00:53:03.134Z,43.53
2019-02-02T00:55:43.820Z,44.77
2019-02-02T00:58:24.402Z,42.40
2019-02-02T01:01:04.905Z,43.47
2019-02-02T01:03:45.573Z,44.33
2019-02-02T01:06:26.092Z,44.13
2019-02-02T01:09:08.421Z,43.93
2019-02-02T01:11:48.949Z,43.33
2019-02-02T01:14:29.591Z,44.43
2019-02-02T01:17:10.461Z,45.13
2019-02-02T01:19:51.489Z,42.87
2019-02-02T01:22:31.869Z,43.10
2019-02-02T01:25:12.639Z,43.37
2019-02-02T01:28:04.487Z,42.10
2019-02-02T01:30:36.029Z,44.83
2019-02-02T01:33:17.093Z,43.40
2019-02-02T01:35:57.620Z,43.20
2019-02-02T01:38:38.480Z,41.37
2019-02-02T01:41:19.705Z,45.07
2019-02-02T01:44:00.162Z,43.30
2019-02-02T01:46:28.592Z,41.50
2019-02-02T01:49:16.612Z,43.57
2019-02-02T01:52:04.377Z,42.20
2019-02-02T01:54:52.141Z,44.00
2019-02-02T01:57:39.904Z,43.50
2019-02-02T02:00:47.046Z,44.77
2019-02-02T02:03:35.044Z,41.83
2019-02-02T02:06:22.793Z,43.63
2019-02-02T02:09:04.190Z,42.23
2019-02-02T02:11:44.946Z,42.43
2019-02-02T02:14:27.452Z,42.13
2019-02-02T02:17:07.985Z,43.93
2019-02-02T02:19:49.019Z,44.60
2019-02-02T02:22:40.684Z,42.23
2019-02-02T02:25:12.765Z,42.97
2019-02-02T02:27:53.466Z,43.37
2019-02-02T02:30:34.349Z,43.30
2019-02-02T02:33:15.024Z,43.27
2019-02-02T02:35:55.961Z,43.40
2019-02-02T02:38:36.726Z,43.40
2019-02-02T02:41:17.757Z,42.83
2019-02-02T02:43:58.593Z,43.67
2019-02-02T02:46:38.884Z,42.40
2019-02-02T02:49:19.752Z,42.87
2019-02-02T02:52:00.750Z,44.53
2019-02-02T02:54:29.472Z,43.70
2019-02-02T02:57:20.368Z,43.80
2019-02-02T03:00:27.472Z,43.77
2019-02-02T03:03:15.303Z,45.10
2019-02-02T03:06:03.176Z,44.63
2019-02-02T03:08:51.273Z,43.90
2019-02-02T03:11:39.017Z,45.67
2019-02-02T03:14:26.796Z,42.67
2019-02-02T03:17:14.560Z,44.33
2019-02-02T03:20:02.303Z,42.60
2019-02-02T03:22:42.472Z,42.10
2019-02-02T03:25:23.188Z,43.97
2019-02-02T03:28:04.073Z,44.93
2019-02-02T03:30:44.734Z,42.50
2019-02-02T03:33:25.818Z,44.77
2019-02-02T03:36:06.351Z,44.03
2019-02-02T03:38:47.450Z,44.40
2019-02-02T03:41:28.530Z,43.37
2019-02-02T03:44:09.464Z,44.23
2019-02-02T03:46:50.577Z,44.70
2019-02-02T03:49:31.418Z,42.00
2019-02-02T03:52:12.174Z,45.40
2019-02-02T03:54:52.913Z,44.17
2019-02-02T03:57:33.807Z,44.33
2019-02-02T04:00:14.232Z,43.63
2019-02-02T04:09:06.892Z,43.97
2019-02-02T04:11:47.388Z,45.53
2019-02-02T04:14:27.843Z,43.30
2019-02-02T04:17:08.456Z,43.57
2019-02-02T04:22:35.578Z,44.73
2019-02-02T04:25:15.198Z,44.83
2019-02-02T04:27:55.851Z,44.30
2019-02-02T04:30:36.340Z,44.23
2019-02-02T04:33:17.565Z,45.67
2019-02-02T04:35:58.220Z,44.17
2019-02-02T04:38:39.280Z,43.77
2019-02-02T04:41:20.065Z,47.37
2019-02-02T04:44:00.846Z,42.87
2019-02-02T04:46:41.627Z,44.07
2019-02-02T04:49:22.222Z,45.80
2019-02-02T04:52:03.209Z,45.20
2019-02-02T04:54:44.610Z,44.97
2019-02-02T04:57:25.434Z,47.03
2019-02-02T05:00:06.488Z,45.73
2019-02-02T05:02:47.826Z,45.87
2019-02-02T05:05:28.767Z,47.20
2019-02-02T05:08:09.272Z,46.43
2019-02-02T05:10:50.157Z,46.63
2019-02-02T05:13:31.065Z,46.13
2019-02-02T05:16:13.504Z,47.67
2019-02-02T05:18:54.102Z,45.60
2019-02-02T05:21:34.929Z,46.93
2019-02-02T05:24:15.568Z,46.87
2019-02-02T05:26:56.438Z,46.63
2019-02-02T05:29:41.463Z,47.20
2019-02-02T05:32:19.053Z,47.70
2019-02-02T05:34:59.553Z,46.20
2019-02-02T05:37:39.898Z,47.03
2019-02-02T05:40:20.647Z,46.70
2019-02-02T05:43:01.223Z,48.63
2019-02-02T05:45:41.628Z,47.57
2019-02-02T05:48:22.040Z,47.37
2019-02-02T05:51:02.908Z,48.83
2019-02-02T05:53:43.522Z,47.20
2019-02-02T05:56:24.681Z,47.33
2019-02-02T05:59:05.667Z,47.63
2019-02-02T06:01:46.688Z,53.03
2019-02-02T06:04:27.305Z,47.60
2019-02-02T06:07:08.227Z,48.53
2019-02-02T06:09:48.585Z,48.73
2019-02-02T06:12:29.509Z,51.20
2019-02-02T06:15:09.731Z,48.90
2019-02-02T06:17:50.653Z,48.77
2019-02-02T06:20:31.865Z,50.47
2019-02-02T06:23:12.504Z,49.43
2019-02-02T06:25:53.508Z,49.43
2019-02-02T06:28:34.779Z,51.43
2019-02-02T06:31:15.331Z,49.40
2019-02-02T06:33:55.763Z,50.47
2019-02-02T06:36:36.228Z,49.80
2019-02-02T06:39:17.164Z,50.97
2019-02-02T06:41:57.896Z,50.00
2019-02-02T06:44:26.556Z,53.33
2019-02-02T06:47:14.288Z,53.37
2019-02-02T06:50:02.096Z,52.83
2019-02-02T06:52:49.864Z,52.80
2019-02-02T06:55:37.990Z,50.73
2019-02-02T06:58:25.732Z,51.87
2019-02-02T07:01:13.768Z,52.73
2019-02-02T07:04:01.532Z,51.00
2019-02-02T07:06:49.295Z,51.47
2019-02-02T07:09:37.052Z,52.23
2019-02-02T07:12:24.811Z,52.27
2019-02-02T07:15:33.298Z,50.47
2019-02-02T07:18:21.061Z,51.40
2019-02-02T07:21:09.094Z,51.70
2019-02-02T07:23:49.734Z,53.00
2019-02-02T07:26:30.179Z,53.60
2019-02-02T07:29:10.642Z,52.23
2019-02-02T07:31:51.137Z,52.03
2019-02-02T07:34:32.578Z,52.30
2019-02-02T07:37:13.517Z,52.67
2019-02-02T07:39:54.281Z,52.87
2019-02-02T07:42:35.157Z,52.03
2019-02-02T07:45:15.829Z,52.83
2019-02-02T07:47:56.504Z,54.17
2019-02-02T07:50:37.769Z,52.67
2019-02-02T07:53:18.271Z,53.63
2019-02-02T07:55:58.660Z,54.30
2019-02-02T07:58:39.172Z,54.30
2019-02-02T08:01:19.937Z,54.07
2019-02-02T08:04:01.008Z,52.57
2019-02-02T08:06:42.037Z,54.10
2019-02-02T08:09:22.557Z,55.27
2019-02-02T08:12:03.903Z,53.10
2019-02-02T08:14:44.950Z,55.40
2019-02-02T08:17:25.565Z,53.67
2019-02-02T08:20:06.212Z,54.53
2019-02-02T08:22:47.366Z,55.43
2019-02-02T08:25:28.131Z,57.13
2019-02-02T08:28:08.648Z,55.63
2019-02-02T08:30:52.493Z,54.90
2019-02-02T08:33:31.506Z,55.73
2019-02-02T08:36:12.217Z,54.63
2019-02-02T08:38:53.094Z,56.70
2019-02-02T08:41:33.956Z,53.97
2019-02-02T08:44:16.317Z,56.27
2019-02-02T08:46:57.313Z,54.17
2019-02-02T08:49:40.276Z,55.23
2019-02-02T08:52:20.928Z,54.20
2019-02-02T08:55:01.526Z,56.73
2019-02-02T08:57:42.090Z,55.63
2019-02-02T09:00:22.742Z,54.80
2019-02-02T09:03:03.697Z,55.53
2019-02-02T09:05:44.328Z,55.50
2019-02-02T09:08:25.152Z,56.93
2019-02-02T09:11:05.893Z,58.80
2019-02-02T09:13:46.706Z,57.67
2019-02-02T09:16:27.601Z,53.87
2019-02-02T09:19:08.645Z,57.60
2019-02-02T09:21:49.254Z,54.13
2019-02-02T09:24:30.245Z,58.20
2019-02-02T09:27:11.350Z,57.63
2019-02-02T09:29:52.102Z,57.90
2019-02-02T09:32:32.640Z,57.87
2019-02-02T09:35:13.409Z,58.90
2019-02-02T09:37:54.433Z,58.23
2019-02-02T09:40:36.804Z,62.67
2019-02-02T09:43:17.464Z,59.77
2019-02-02T09:45:58.041Z,59.27
2019-02-02T09:48:38.776Z,61.83
2019-02-02T09:51:19.964Z,59.83
2019-02-02T09:54:02.280Z,59.50
2019-02-02T09:56:43.324Z,60.93
2019-02-02T09:59:24.556Z,60.53
2019-02-02T10:02:05.078Z,61.60
2019-02-02T10:04:46.317Z,61.40
2019-02-02T10:07:27.049Z,63.17
2019-02-02T10:10:07.622Z,62.53
2019-02-02T10:12:48.456Z,62.80
2019-02-02T10:15:29.388Z,62.53
2019-02-02T10:18:10.398Z,61.13
2019-02-02T10:20:51.372Z,60.97
2019-02-02T10:23:32.157Z,64.80
2019-02-02T10:26:12.912Z,64.10
2019-02-02T10:28:53.992Z,63.13
2019-02-02T10:31:39.748Z,61.33
2019-02-02T10:34:19.503Z,61.53
2019-02-02T10:36:59.857Z,62.43
2019-02-02T10:39:40.878Z,62.47
2019-02-02T10:42:22.081Z,65.40
2019-02-02T10:45:02.542Z,63.53
2019-02-02T10:47:43.561Z,63.97
2019-02-02T10:50:24.187Z,65.40
2019-02-02T10:53:05.485Z,63.83
2019-02-02T10:55:45.928Z,65.13
2019-02-02T10:58:26.460Z,65.30
2019-02-02T11:01:07.354Z,63.93
2019-02-02T11:03:48.332Z,64.00
2019-02-02T11:06:28.850Z,65.17
2019-02-02T11:09:09.392Z,65.70
2019-02-02T11:11:50.154Z,65.60
2019-02-02T11:14:30.726Z,65.30
2019-02-02T11:17:11.555Z,68.83
2019-02-02T11:19:52.502Z,65.43
2019-02-02T11:22:32.824Z,65.40
2019-02-02T11:25:14.105Z,64.60
2019-02-02T11:30:36.933Z,66.10
2019-02-02T11:33:17.356Z,65.43
2019-02-02T11:35:57.989Z,65.53
2019-02-02T11:38:38.595Z,66.53
2019-02-02T11:41:19.159Z,64.53
2019-02-02T11:43:59.865Z,68.17
2019-02-02T11:46:40.308Z,65.57
2019-02-02T11:49:23.890Z,68.30
2019-02-02T11:52:03.853Z,65.03
2019-02-02T11:54:46.430Z,67.73
2019-02-02T11:57:26.618Z,65.77
2019-02-02T12:00:07.144Z,65.73
2019-02-02T12:02:49.494Z,65.77
2019-02-02T12:05:30.563Z,60.33
2019-02-02T12:08:11.058Z,59.87
2019-02-02T12:10:52.020Z,65.50
2019-02-02T12:13:33.155Z,63.73
2019-02-02T12:16:14.090Z,66.43
2019-02-02T12:18:54.633Z,65.67
2019-02-02T12:21:35.356Z,66.23
2019-02-02T12:24:16.451Z,64.20
2019-02-02T12:26:57.360Z,64.07
2019-02-02T12:29:37.905Z,63.97
2019-02-02T12:32:26.162Z,67.50
2019-02-02T12:35:00.472Z,67.03
2019-02-02T12:37:28.903Z,65.87
2019-02-02T12:40:37.395Z,67.33
2019-02-02T12:43:25.162Z,65.33
2019-02-02T12:46:12.896Z,69.93
2019-02-02T12:49:00.730Z,78.73
2019-02-02T12:51:48.500Z,68.53
2019-02-02T12:54:36.385Z,66.67
2019-02-02T12:57:16.982Z,67.63
2019-02-02T12:59:57.662Z,66.53
2019-02-02T13:02:38.656Z,66.07
2019-02-02T13:05:19.859Z,66.47
2019-02-02T13:08:00.628Z,63.07
2019-02-02T13:11:09.085Z,65.47
2019-02-02T13:13:56.869Z,67.00
2019-02-02T13:16:44.610Z,28.93
2019-02-02T13:19:32.400Z,63.63
2019-02-02T13:22:20.153Z,44.20
2019-02-02T13:25:09.898Z,24.77
2019-02-02T13:27:57.698Z,64.47
2019-02-02T13:30:45.543Z,69.03
2019-02-02T13:33:36.255Z,63.37
2019-02-02T13:36:24.065Z,48.50
2019-02-02T13:39:12.129Z,63.23
2019-02-02T13:42:00.187Z,61.83
2019-02-02T13:44:28.659Z,65.67
2019-02-02T13:47:16.445Z,62.00
2019-02-02T13:50:25.030Z,62.20
2019-02-02T13:53:12.801Z,64.37
2019-02-02T13:56:00.574Z,61.77
2019-02-02T13:59:07.753Z,62.80
2019-02-02T14:01:48.114Z,62.77
2019-02-02T14:04:28.951Z,61.50
2019-02-02T14:07:17.681Z,63.40
2019-02-02T14:09:56.975Z,44.07
2019-02-02T14:12:35.092Z,65.40
2019-02-02T14:15:15.747Z,63.60
2019-02-02T14:17:58.003Z,63.67
2019-02-02T14:20:38.790Z,64.50
2019-02-02T14:23:20.838Z,63.63
2019-02-02T14:26:01.950Z,63.23
2019-02-02T14:28:42.642Z,61.93
2019-02-02T14:31:23.048Z,62.77
2019-02-02T14:34:04.063Z,63.13
2019-02-02T14:36:45.277Z,64.23
2019-02-02T14:39:13.736Z,62.43
2019-02-02T14:42:01.814Z,62.53
2019-02-02T14:44:49.556Z,61.20
2019-02-02T14:47:37.693Z,58.73
2019-02-02T14:50:25.473Z,58.67
2019-02-02T14:53:13.534Z,58.23
2019-02-02T14:56:02.698Z,58.90
2019-02-02T14:58:50.468Z,58.63
2019-02-02T15:01:38.206Z,58.47
2019-02-02T15:04:25.970Z,57.97
2019-02-02T15:07:13.713Z,59.60
2019-02-02T15:10:01.497Z,59.03
2019-02-02T15:13:03.746Z,58.13
2019-02-02T15:15:39.052Z,55.97
2019-02-02T15:18:19.612Z,57.97
2019-02-02T15:21:00.242Z,57.43
2019-02-02T15:23:45.547Z,57.17
2019-02-02T15:26:26.529Z,59.20
2019-02-02T15:29:07.433Z,57.97
2019-02-02T15:31:48.279Z,57.40
2019-02-02T15:34:28.980Z,56.73
2019-02-02T15:37:09.940Z,55.33
2019-02-02T15:39:51.017Z,56.17
2019-02-02T15:42:31.709Z,54.93
2019-02-02T15:45:12.277Z,54.87
2019-02-02T15:47:53.116Z,54.77
2019-02-02T15:50:34.032Z,53.30
2019-02-02T15:53:15.282Z,54.13
2019-02-02T15:55:55.986Z,56.90
2019-02-02T15:58:37.122Z,56.80
2019-02-02T16:01:17.637Z,56.83
2019-02-02T16:03:58.757Z,56.80
2019-02-02T16:06:39.751Z,59.20
2019-02-02T16:09:20.701Z,54.33
2019-02-02T16:12:01.451Z,54.70
2019-02-02T16:14:41.920Z,55.67
2019-02-02T16:20:05.695Z,58.63
2019-02-02T16:22:51.733Z,54.70
2019-02-02T16:25:32.793Z,54.60
2019-02-02T16:28:13.112Z,54.17
2019-02-02T16:30:53.777Z,54.73
2019-02-02T16:33:34.877Z,54.97
2019-02-02T16:36:15.898Z,55.43
2019-02-02T16:38:56.300Z,57.20
2019-02-02T16:41:37.613Z,58.70
2019-02-02T16:44:18.377Z,58.53
2019-02-02T16:46:59.025Z,58.93
2019-02-02T16:49:39.640Z,58.73
2019-02-02T16:52:20.272Z,59.17
2019-02-02T16:55:01.296Z,58.67
2019-02-02T16:57:41.967Z,60.97
2019-02-02T17:00:26.098Z,58.97
2019-02-02T17:03:06.365Z,59.63
2019-02-02T17:05:47.250Z,62.17
2019-02-02T17:08:28.028Z,57.83
2019-02-02T17:11:08.764Z,58.70
2019-02-02T17:13:52.396Z,57.13
2019-02-02T17:16:31.462Z,56.83
2019-02-02T17:19:12.809Z,56.63
2019-02-02T17:21:53.467Z,59.00
2019-02-02T17:24:34.475Z,56.00
2019-02-02T17:27:15.178Z,54.73
2019-02-02T17:29:55.984Z,56.60
2019-02-02T17:32:36.761Z,54.87
2019-02-02T17:35:17.417Z,56.37
2019-02-02T17:37:58.522Z,55.53
2019-02-02T17:40:39.164Z,56.77
2019-02-02T17:43:19.906Z,53.50
2019-02-02T17:46:00.236Z,53.97
2019-02-02T17:48:41.080Z,54.90
2019-02-02T17:51:21.853Z,56.57
2019-02-02T17:54:02.912Z,55.97
2019-02-02T17:56:43.972Z,56.37
2019-02-02T17:59:25.244Z,55.13
2019-02-02T18:02:06.114Z,56.43
2019-02-02T18:04:47.270Z,55.70
2019-02-02T18:07:28.165Z,55.90
2019-02-02T18:10:09.007Z,56.03
2019-02-02T18:12:50.157Z,57.30
2019-02-02T18:15:30.963Z,58.03
2019-02-02T18:18:11.690Z,56.40
2019-02-02T18:20:52.544Z,57.90
2019-02-02T18:23:33.321Z,33.40
2019-02-02T18:26:14.454Z,57.20
2019-02-02T18:28:42.859Z,56.27
2019-02-02T18:31:30.604Z,27.93
2019-02-02T18:34:18.345Z,57.80
2019-02-02T18:37:06.118Z,57.53
2019-02-02T18:39:53.881Z,60.90
2019-02-02T18:42:41.690Z,58.77
2019-02-02T18:45:30.053Z,60.90
2019-02-02T18:48:17.824Z,60.03
2019-02-02T18:51:05.582Z,56.90
2019-02-02T18:53:53.446Z,58.27
2019-02-02T18:56:41.465Z,58.80
2019-02-02T18:59:50.034Z,57.73
2019-02-02T19:02:37.768Z,57.97
2019-02-02T19:05:25.541Z,58.90
2019-02-02T19:08:13.354Z,58.43
2019-02-02T19:11:03.631Z,57.23
2019-02-02T19:13:50.917Z,55.80
2019-02-02T19:16:19.412Z,59.50
2019-02-02T19:19:07.465Z,56.80
2019-02-02T19:21:55.230Z,55.70
2019-02-02T19:24:42.984Z,54.50
2019-02-02T19:27:24.052Z,54.27
2019-02-02T19:30:04.794Z,55.13
2019-02-02T19:32:45.914Z,53.93
2019-02-02T19:35:27.029Z,54.97
2019-02-02T19:38:10.538Z,55.37
2019-02-02T19:40:51.463Z,55.03
2019-02-02T19:43:32.053Z,56.13
2019-02-02T19:46:12.631Z,55.10
2019-02-02T19:48:53.805Z,53.57
2019-02-02T19:51:34.753Z,55.27
2019-02-02T19:54:15.557Z,55.70
2019-02-02T19:56:56.180Z,55.67
2019-02-02T19:59:36.828Z,56.43
2019-02-02T20:02:17.693Z,54.93
2019-02-02T20:04:58.470Z,49.33
2019-02-02T20:07:39.277Z,58.77
2019-02-02T20:10:20.076Z,62.30
2019-02-02T20:13:00.739Z,61.27
2019-02-02T20:15:41.629Z,51.93
2019-02-02T20:18:24.949Z,58.10
2019-02-02T20:21:05.489Z,55.70
2019-02-02T20:23:46.548Z,56.80
2019-02-02T20:26:27.016Z,57.90
2019-02-02T20:29:07.775Z,56.33
2019-02-02T20:31:48.271Z,57.17
2019-02-02T20:34:28.944Z,50.40
2019-02-02T20:37:09.925Z,56.37
2019-02-02T20:39:50.833Z,55.20
2019-02-02T20:42:19.584Z,45.37
2019-02-02T20:45:26.678Z,57.23
2019-02-02T20:48:14.665Z,56.27
2019-02-02T20:51:02.430Z,54.57
2019-02-02T20:53:50.173Z,25.40
2019-02-02T20:56:37.941Z,54.20
2019-02-02T20:59:26.035Z,50.90
2019-02-02T21:02:13.863Z,54.73
2019-02-02T21:05:03.352Z,54.40
2019-02-02T21:07:51.104Z,51.37
2019-02-02T21:10:59.855Z,52.83
2019-02-02T21:13:47.639Z,51.67
2019-02-02T21:16:35.782Z,52.93
2019-02-02T21:19:23.528Z,54.00
2019-02-02T21:22:11.297Z,53.30
2019-02-02T21:24:59.068Z,51.20
2019-02-02T21:27:46.891Z,50.80
2019-02-02T21:30:27.628Z,53.50
2019-02-02T21:33:08.272Z,52.87
2019-02-02T21:35:49.161Z,52.57
2019-02-02T21:38:29.765Z,53.33
2019-02-02T21:41:10.449Z,52.57
2019-02-02T21:43:50.977Z,50.37
2019-02-02T21:46:31.798Z,53.60
2019-02-02T21:49:12.761Z,52.70
2019-02-02T21:51:53.445Z,53.53
2019-02-02T21:54:34.181Z,52.23
2019-02-02T21:57:14.784Z,52.93
2019-02-02T21:59:55.516Z,52.27
2019-02-02T22:02:36.444Z,53.30
2019-02-02T22:05:17.225Z,47.20
2019-02-02T22:07:58.264Z,52.50
2019-02-02T22:10:39.373Z,52.87
2019-02-02T22:13:20.521Z,52.00
2019-02-02T22:16:00.957Z,51.60
2019-02-02T22:18:41.775Z,51.23
2019-02-02T22:21:22.402Z,45.27
2019-02-02T22:24:03.231Z,52.03
2019-02-02T22:26:44.534Z,52.83
2019-02-02T22:29:25.490Z,52.10
2019-02-02T22:32:06.613Z,50.43
2019-02-02T22:34:47.997Z,51.57
2019-02-02T22:37:28.648Z,51.43
2019-02-02T22:40:09.304Z,52.17
2019-02-02T22:42:50.208Z,50.70
2019-02-02T22:45:31.235Z,50.37
2019-02-02T22:48:11.709Z,51.17
2019-02-02T22:50:52.032Z,51.10
2019-02-02T22:53:33.325Z,48.47
2019-02-02T22:56:14.306Z,48.37
2019-02-02T22:58:55.203Z,48.67
2019-02-02T23:01:35.936Z,47.17
2019-02-02T23:04:22.327Z,49.47
2019-02-02T23:07:30.817Z,50.33
2019-02-02T23:10:37.880Z,47.83
2019-02-02T23:13:46.627Z,49.13
2019-02-02T23:16:34.362Z,47.63
2019-02-02T23:19:22.116Z,46.23
2019-02-02T23:22:09.896Z,47.00
2019-02-02T23:24:57.736Z,46.27
2019-02-02T23:27:45.476Z,47.93
2019-02-02T23:30:28.205Z,49.90
2019-02-02T23:33:08.988Z,45.93
2019-02-02T23:35:49.502Z,46.57
2019-02-02T23:38:30.356Z,47.50
2019-02-02T23:41:10.937Z,47.37
2019-02-02T23:43:51.234Z,47.60
2019-02-02T23:46:32.073Z,46.90
2019-02-02T23:49:12.669Z,46.57
2019-02-02T23:51:53.534Z,46.60
2019-02-02T23:54:34.200Z,45.70
2019-02-02T23:57:14.738Z,47.50
2019-02-02T23:59:55.481Z,47.17
